createdAt,value
2018-05-03T00:02:01.665Z,8.80
2018-05-03T00:04:30.387Z,8.70
2018-05-03T00:06:58.704Z,8.60
2018-05-03T00:09:27.294Z,8.60
2018-05-03T00:11:55.902Z,8.60
2018-05-03T00:14:24.575Z,8.50
2018-05-03T00:16:53.913Z,8.50
2018-05-03T00:19:22.541Z,8.40
2018-05-03T00:21:51.146Z,8.40
2018-05-03T00:24:19.773Z,8.40
2018-05-03T00:26:52.002Z,8.30
2018-05-03T00:29:20.596Z,8.30
2018-05-03T00:31:49.984Z,8.20
2018-05-03T00:34:18.620Z,8.20
2018-05-03T00:36:47.269Z,8.20
2018-05-03T00:39:15.840Z,8.20
2018-05-03T00:41:44.486Z,8.20
2018-05-03T00:44:13.092Z,8.30
2018-05-03T00:46:41.716Z,8.20
2018-05-03T00:49:10.344Z,8.20
2018-05-03T00:51:38.963Z,8.30
2018-05-03T00:57:09.983Z,8.30
2018-05-03T00:59:38.556Z,8.30
2018-05-03T01:02:07.150Z,8.30
2018-05-03T01:04:35.387Z,8.20
2018-05-03T01:07:03.970Z,8.20
2018-05-03T01:09:32.515Z,8.10
2018-05-03T01:12:01.091Z,8.10
2018-05-03T01:14:29.677Z,8.10
2018-05-03T01:16:58.233Z,8.10
2018-05-03T01:19:26.863Z,8.10
2018-05-03T01:21:55.394Z,8.10
2018-05-03T01:24:23.961Z,8.10
2018-05-03T01:26:52.529Z,8.10
2018-05-03T01:29:21.075Z,8.10
2018-05-03T01:31:49.652Z,8.20
2018-05-03T01:34:18.973Z,8.30
2018-05-03T01:36:47.262Z,8.30
2018-05-03T01:39:15.865Z,8.30
2018-05-03T01:41:44.496Z,8.30
2018-05-03T01:44:13.111Z,8.30
2018-05-03T01:46:41.703Z,8.40
2018-05-03T01:49:10.366Z,8.50
2018-05-03T01:51:38.971Z,8.50
2018-05-03T01:54:08.359Z,8.60
2018-05-03T01:56:37.006Z,8.50
2018-05-03T01:59:05.639Z,8.50
2018-05-03T02:01:34.116Z,8.50
2018-05-03T02:04:02.743Z,8.50
2018-05-03T02:06:31.376Z,8.50
2018-05-03T02:09:00.078Z,8.50
2018-05-03T02:11:29.468Z,8.50
2018-05-03T02:13:58.112Z,8.50
2018-05-03T02:16:26.746Z,8.50
2018-05-03T02:18:55.379Z,8.50
2018-05-03T02:21:24.072Z,8.50
2018-05-03T02:23:53.441Z,8.60
2018-05-03T02:26:22.819Z,8.60
2018-05-03T02:28:51.449Z,8.60
2018-05-03T02:31:20.096Z,8.70
2018-05-03T02:33:48.712Z,8.70
2018-05-03T02:36:18.116Z,8.70
2018-05-03T02:38:47.528Z,8.70
2018-05-03T02:41:16.179Z,8.70
2018-05-03T02:43:44.855Z,8.70
2018-05-03T02:46:13.528Z,8.80
2018-05-03T02:48:42.176Z,8.80
2018-05-03T02:51:11.666Z,8.90
2018-05-03T02:53:40.423Z,8.90
2018-05-03T02:56:09.063Z,8.90
2018-05-03T02:58:49.611Z,8.90
2018-05-03T03:01:35.032Z,8.90
2018-05-03T03:04:20.360Z,8.80
2018-05-03T03:10:30.553Z,8.80
2018-05-03T03:16:47.975Z,8.70
2018-05-03T03:19:35.287Z,8.70
2018-05-03T03:22:20.579Z,8.60
2018-05-03T03:28:15.010Z,8.60
2018-05-03T03:31:00.144Z,8.60
2018-05-03T03:37:04.662Z,8.60
2018-05-03T03:39:44.293Z,8.50
2018-05-03T03:42:24.185Z,8.50
2018-05-03T03:44:53.506Z,8.40
2018-05-03T03:47:22.110Z,8.40
2018-05-03T03:49:50.630Z,8.30
2018-05-03T03:52:19.190Z,8.40
2018-05-03T03:54:47.439Z,8.40
2018-05-03T03:57:16.012Z,8.50
2018-05-03T03:59:44.430Z,8.50
2018-05-03T04:02:12.981Z,8.50
2018-05-03T04:04:41.550Z,8.50
2018-05-03T04:07:10.852Z,8.60
2018-05-03T04:09:40.183Z,8.60
2018-05-03T04:12:08.746Z,8.60
2018-05-03T04:14:38.269Z,8.70
2018-05-03T04:17:06.830Z,8.70
2018-05-03T04:19:46.663Z,8.80
2018-05-03T04:22:26.337Z,8.80
2018-05-03T04:25:06.308Z,8.80
2018-05-03T04:27:35.072Z,8.90
2018-05-03T04:30:03.609Z,8.90
2018-05-03T04:32:32.199Z,8.90
2018-05-03T04:35:00.757Z,9.00
2018-05-03T04:37:29.295Z,9.00
2018-05-03T04:39:57.875Z,9.00
2018-05-03T04:42:26.439Z,9.20
2018-05-03T04:44:55.008Z,9.10
2018-05-03T04:47:23.602Z,9.10
2018-05-03T04:49:52.159Z,9.10
2018-05-03T04:52:21.310Z,9.00
2018-05-03T04:54:49.835Z,9.00
2018-05-03T04:57:19.152Z,9.00
2018-05-03T04:59:47.721Z,9.00
2018-05-03T05:02:17.019Z,9.00
2018-05-03T05:04:45.676Z,9.00
2018-05-03T05:07:14.330Z,9.00
2018-05-03T05:09:42.885Z,9.00
2018-05-03T05:12:12.222Z,9.20
2018-05-03T05:14:40.760Z,9.20
2018-05-03T05:17:09.320Z,9.30
2018-05-03T05:19:37.857Z,9.50
2018-05-03T05:22:07.175Z,9.60
2018-05-03T05:24:35.733Z,9.60
2018-05-03T05:27:04.259Z,9.70
2018-05-03T05:29:32.827Z,9.80
2018-05-03T05:32:01.080Z,10.00
2018-05-03T05:34:30.614Z,10.10
2018-05-03T05:36:59.186Z,10.10
2018-05-03T05:39:28.807Z,10.10
2018-05-03T05:41:57.382Z,10.10
2018-05-03T05:44:26.067Z,10.20
2018-05-03T05:46:54.687Z,10.20
2018-05-03T05:49:23.335Z,10.30
2018-05-03T05:51:52.730Z,10.60
2018-05-03T05:54:21.371Z,10.60
2018-05-03T05:56:50.034Z,10.70
2018-05-03T05:59:18.512Z,10.80
2018-05-03T06:01:47.270Z,11.00
2018-05-03T06:04:15.950Z,11.20
2018-05-03T06:06:44.889Z,11.10
2018-05-03T06:09:13.512Z,11.40
2018-05-03T06:11:42.188Z,11.60
2018-05-03T06:14:10.831Z,11.60
2018-05-03T06:16:40.217Z,11.80
2018-05-03T06:19:08.904Z,11.80
2018-05-03T06:21:37.527Z,11.90
2018-05-03T06:24:06.986Z,12.10
2018-05-03T06:26:35.616Z,12.10
2018-05-03T06:29:05.010Z,12.30
2018-05-03T06:31:33.662Z,12.30
2018-05-03T06:34:02.277Z,12.40
2018-05-03T06:36:30.927Z,12.40
2018-05-03T06:38:59.626Z,12.40
2018-05-03T06:41:28.418Z,12.40
2018-05-03T06:43:57.044Z,12.30
2018-05-03T06:46:26.427Z,12.40
2018-05-03T06:48:55.093Z,12.40
2018-05-03T06:51:23.816Z,12.40
2018-05-03T06:53:52.567Z,12.50
2018-05-03T06:56:21.205Z,12.50
2018-05-03T06:58:50.576Z,12.50
2018-05-03T07:01:19.214Z,12.60
2018-05-03T07:03:47.896Z,12.50
2018-05-03T07:06:16.550Z,12.60
2018-05-03T07:08:45.191Z,12.60
2018-05-03T07:11:13.841Z,12.60
2018-05-03T07:13:43.265Z,12.60
2018-05-03T07:16:11.903Z,12.60
2018-05-03T07:18:40.558Z,12.70
2018-05-03T07:21:13.570Z,12.80
2018-05-03T07:23:42.302Z,12.90
2018-05-03T07:26:11.735Z,13.20
2018-05-03T07:28:46.246Z,13.20
2018-05-03T07:31:14.749Z,13.40
2018-05-03T07:33:43.499Z,13.50
2018-05-03T07:36:12.086Z,13.70
2018-05-03T07:38:40.743Z,13.90
2018-05-03T07:41:09.355Z,14.00
2018-05-03T07:43:37.974Z,14.10
2018-05-03T07:46:07.416Z,14.50
2018-05-03T07:48:36.040Z,14.40
2018-05-03T07:51:04.648Z,14.60
2018-05-03T07:53:34.007Z,14.50
2018-05-03T07:56:02.655Z,14.50
2018-05-03T07:58:37.869Z,14.70
2018-05-03T08:01:07.305Z,15.00
2018-05-03T08:03:35.951Z,15.00
2018-05-03T08:06:04.571Z,15.10
2018-05-03T08:08:33.218Z,15.40
2018-05-03T08:11:01.871Z,15.50
2018-05-03T08:13:30.533Z,15.50
2018-05-03T08:15:59.207Z,15.40
2018-05-03T08:18:28.409Z,15.30
2018-05-03T08:20:57.944Z,15.40
2018-05-03T08:23:26.620Z,15.30
2018-05-03T08:25:55.281Z,15.40
2018-05-03T08:28:23.932Z,15.40
2018-05-03T08:30:52.560Z,15.40
2018-05-03T08:33:21.163Z,15.50
2018-05-03T08:35:50.559Z,15.80
2018-05-03T08:38:19.948Z,15.90
2018-05-03T08:40:48.621Z,15.90
2018-05-03T08:43:17.239Z,16.10
2018-05-03T08:45:45.916Z,16.20
2018-05-03T08:48:15.298Z,16.10
2018-05-03T08:50:43.941Z,16.10
2018-05-03T08:53:12.594Z,16.10
2018-05-03T08:55:41.228Z,16.00
2018-05-03T08:58:19.679Z,15.90
2018-05-03T09:00:48.312Z,16.00
2018-05-03T09:03:17.836Z,16.00
2018-05-03T09:05:46.469Z,16.00
2018-05-03T09:08:15.091Z,16.00
2018-05-03T09:10:44.525Z,16.40
2018-05-03T09:13:13.210Z,16.40
2018-05-03T09:15:41.865Z,16.20
2018-05-03T09:18:11.358Z,16.20
2018-05-03T09:20:39.697Z,16.10
2018-05-03T09:23:08.335Z,16.10
2018-05-03T09:25:36.997Z,16.10
2018-05-03T09:28:05.688Z,16.10
2018-05-03T09:30:34.344Z,16.00
2018-05-03T09:33:02.969Z,16.10
2018-05-03T09:35:31.612Z,16.10
2018-05-03T09:38:00.251Z,16.10
2018-05-03T09:40:28.870Z,16.30
2018-05-03T09:42:57.502Z,16.60
2018-05-03T09:45:26.105Z,16.50
2018-05-03T09:47:55.063Z,16.30
2018-05-03T09:50:23.669Z,16.30
2018-05-03T09:52:52.311Z,16.40
2018-05-03T09:55:20.952Z,16.60
2018-05-03T09:57:54.258Z,16.70
2018-05-03T10:00:22.909Z,17.00
2018-05-03T10:02:51.516Z,17.30
2018-05-03T10:05:20.238Z,17.70
2018-05-03T10:07:50.243Z,17.90
2018-05-03T10:10:19.020Z,18.20
2018-05-03T10:12:47.678Z,18.60
2018-05-03T10:15:16.424Z,18.80
2018-05-03T10:17:45.845Z,19.30
2018-05-03T10:20:15.024Z,19.00
2018-05-03T10:22:43.467Z,19.00
2018-05-03T10:25:12.137Z,19.50
2018-05-03T10:27:40.741Z,19.80
2018-05-03T10:30:09.417Z,20.50
2018-05-03T10:32:38.030Z,20.10
2018-05-03T10:47:34.786Z,22.10
2018-05-03T10:50:03.393Z,21.90
2018-05-03T10:52:32.763Z,22.40
2018-05-03T10:55:01.393Z,22.30
2018-05-03T10:57:30.077Z,21.70
2018-05-03T10:59:59.368Z,22.60
2018-05-03T11:02:28.008Z,22.60
2018-05-03T11:04:56.672Z,22.40
2018-05-03T11:07:25.335Z,23.00
2018-05-03T11:09:54.007Z,23.40
2018-05-03T11:12:22.684Z,22.30
2018-05-03T11:14:51.295Z,21.50
2018-05-03T11:17:22.015Z,23.40
2018-05-03T11:19:50.651Z,24.30
2018-05-03T11:22:19.291Z,25.10
2018-05-03T11:24:47.939Z,25.10
2018-05-03T11:27:16.668Z,24.40
2018-05-03T11:29:45.385Z,23.30
2018-05-03T11:32:14.803Z,23.70
2018-05-03T11:34:44.182Z,23.50
2018-05-03T11:37:12.922Z,23.50
2018-05-03T11:39:41.580Z,22.80
2018-05-03T11:42:10.179Z,22.10
2018-05-03T11:44:38.846Z,22.80
2018-05-03T11:47:08.325Z,21.90
2018-05-03T11:49:36.991Z,21.80
2018-05-03T11:52:05.618Z,23.10
2018-05-03T11:54:34.376Z,24.50
2018-05-03T11:57:02.991Z,25.90
2018-05-03T11:59:31.705Z,26.00
2018-05-03T12:02:01.230Z,23.00
2018-05-03T12:04:29.828Z,22.90
2018-05-03T12:06:58.790Z,21.50
2018-05-03T12:09:27.451Z,22.90
2018-05-03T12:11:56.128Z,24.30
2018-05-03T12:14:24.768Z,25.30
2018-05-03T12:16:53.428Z,25.90
2018-05-03T12:19:22.817Z,27.00
2018-05-03T12:21:51.522Z,27.60
2018-05-03T12:24:21.292Z,27.00
2018-05-03T12:26:50.842Z,25.90
2018-05-03T12:29:19.586Z,25.90
2018-05-03T12:31:48.296Z,27.70
2018-05-03T12:34:16.906Z,28.50
2018-05-03T12:41:49.728Z,28.50
2018-05-03T12:49:18.758Z,26.80
2018-05-03T13:04:15.740Z,30.60
2018-05-03T13:06:45.499Z,30.70
2018-05-03T13:09:14.147Z,30.10
2018-05-03T13:11:42.762Z,30.70
2018-05-03T13:14:11.355Z,29.50
2018-05-03T13:16:40.448Z,28.60
2018-05-03T13:19:09.073Z,26.90
2018-05-03T13:21:37.707Z,24.50
2018-05-03T13:24:06.521Z,25.60
2018-05-03T13:26:35.122Z,28.10
2018-05-03T13:29:03.834Z,28.00
2018-05-03T13:31:32.476Z,29.80
2018-05-03T13:34:01.876Z,29.10
2018-05-03T13:36:30.497Z,29.20
2018-05-03T13:38:59.126Z,30.10
2018-05-03T13:41:27.641Z,30.10
2018-05-03T13:46:25.900Z,30.10
2018-05-03T13:48:54.506Z,30.10
2018-05-03T13:51:23.221Z,30.60
2018-05-03T13:53:53.001Z,30.40
2018-05-03T13:56:21.611Z,30.40
2018-05-03T13:58:50.482Z,30.10
2018-05-03T14:01:19.166Z,30.20
2018-05-03T14:03:47.788Z,27.20
2018-05-03T14:06:16.462Z,26.30
2018-05-03T14:08:45.099Z,28.50
2018-05-03T14:11:14.545Z,29.70
2018-05-03T14:13:43.116Z,29.90
2018-05-03T14:16:11.797Z,29.80
2018-05-03T14:18:40.473Z,29.50
2018-05-03T14:21:09.967Z,25.90
2018-05-03T14:23:39.497Z,24.30
2018-05-03T14:26:08.118Z,24.30
2018-05-03T14:28:36.731Z,26.40
2018-05-03T14:31:05.382Z,28.30
2018-05-03T14:36:33.118Z,26.70
2018-05-03T14:39:05.171Z,25.60
2018-05-03T14:41:33.793Z,27.20
2018-05-03T14:44:02.426Z,28.20
2018-05-03T14:46:31.080Z,29.10
2018-05-03T14:48:59.728Z,29.80
2018-05-03T14:51:28.363Z,30.20
2018-05-03T14:53:57.785Z,31.30
2018-05-03T14:56:26.396Z,31.20
2018-05-03T14:58:55.014Z,30.70
2018-05-03T15:01:23.633Z,27.70
2018-05-03T15:03:52.277Z,25.40
2018-05-03T15:06:20.937Z,23.80
2018-05-03T15:08:49.575Z,22.80
2018-05-03T15:11:18.271Z,22.30
2018-05-03T15:13:46.843Z,25.70
2018-05-03T15:16:15.520Z,28.30
2018-05-03T15:18:44.306Z,28.50
2018-05-03T15:21:12.898Z,27.20
2018-05-03T15:23:41.585Z,24.70
2018-05-03T15:26:10.255Z,23.20
2018-05-03T15:28:38.896Z,22.20
2018-05-03T15:31:07.561Z,21.80
2018-05-03T15:33:36.148Z,21.30
2018-05-03T15:36:04.749Z,21.20
2018-05-03T15:38:34.133Z,20.90
2018-05-03T15:41:02.785Z,20.80
2018-05-03T15:43:31.522Z,20.40
2018-05-03T15:46:00.187Z,20.40
2018-05-03T15:48:28.870Z,20.30
2018-05-03T15:50:57.477Z,20.40
2018-05-03T15:53:26.099Z,20.40
2018-05-03T15:55:54.732Z,20.40
2018-05-03T15:58:23.352Z,20.50
2018-05-03T16:00:52.026Z,20.60
2018-05-03T16:03:20.475Z,20.60
2018-05-03T16:05:49.130Z,20.70
2018-05-03T16:08:17.786Z,20.50
2018-05-03T16:10:47.222Z,20.40
2018-05-03T16:13:15.875Z,20.40
2018-05-03T16:15:44.518Z,20.40
2018-05-03T16:18:13.157Z,20.30
2018-05-03T16:20:41.887Z,20.20
2018-05-03T16:23:10.500Z,20.20
2018-05-03T16:25:39.168Z,20.10
2018-05-03T16:28:07.793Z,20.00
2018-05-03T16:30:36.408Z,19.90
2018-05-03T16:33:05.836Z,19.70
2018-05-03T16:35:34.464Z,19.70
2018-05-03T16:38:03.174Z,19.70
2018-05-03T16:40:31.778Z,19.80
2018-05-03T16:43:01.186Z,19.60
2018-05-03T16:45:30.633Z,19.50
2018-05-03T16:47:59.262Z,19.50
2018-05-03T16:50:27.930Z,19.40
2018-05-03T16:52:56.520Z,19.40
2018-05-03T16:55:25.225Z,19.50
2018-05-03T16:57:53.879Z,19.40
2018-05-03T17:00:23.476Z,19.50
2018-05-03T17:02:52.204Z,19.30
2018-05-03T17:05:20.247Z,19.30
2018-05-03T17:07:48.909Z,19.20
2018-05-03T17:10:17.651Z,19.30
2018-05-03T17:12:46.304Z,19.30
2018-05-03T17:15:14.984Z,19.20
2018-05-03T17:17:43.496Z,19.10
2018-05-03T17:20:12.522Z,18.80
2018-05-03T17:22:41.344Z,18.50
2018-05-03T17:25:09.940Z,18.50
2018-05-03T17:27:38.582Z,18.40
2018-05-03T17:30:07.627Z,18.30
2018-05-03T17:32:37.424Z,18.20
2018-05-03T17:35:06.057Z,18.10
2018-05-03T17:37:34.672Z,18.00
2018-05-03T17:40:03.394Z,17.80
2018-05-03T17:42:32.023Z,17.80
2018-05-03T17:45:00.652Z,17.80
2018-05-03T17:47:30.113Z,17.60
2018-05-03T17:49:58.745Z,17.60
2018-05-03T17:52:27.414Z,17.50
2018-05-03T17:54:56.536Z,17.40
2018-05-03T17:57:26.219Z,17.30
2018-05-03T17:59:54.813Z,17.30
2018-05-03T18:02:24.265Z,17.00
2018-05-03T18:04:52.868Z,17.00
2018-05-03T18:07:21.497Z,16.90
2018-05-03T18:09:50.141Z,16.80
2018-05-03T18:12:20.863Z,16.70
2018-05-03T18:14:49.474Z,16.60
2018-05-03T18:17:18.081Z,16.50
2018-05-03T18:19:46.716Z,16.40
2018-05-03T18:22:18.958Z,16.40
2018-05-03T18:24:48.380Z,16.20
2018-05-03T18:27:17.069Z,16.10
2018-05-03T18:29:45.494Z,16.10
2018-05-03T18:32:14.142Z,16.00
2018-05-03T18:34:44.910Z,15.90
2018-05-03T18:37:13.579Z,15.80
2018-05-03T18:39:42.216Z,15.70
2018-05-03T18:42:10.861Z,15.60
2018-05-03T18:44:39.531Z,15.50
2018-05-03T18:47:08.127Z,15.40
2018-05-03T18:49:36.943Z,15.30
2018-05-03T18:52:06.524Z,15.20
2018-05-03T18:54:34.953Z,15.10
2018-05-03T18:57:05.396Z,15.10
2018-05-03T18:59:34.012Z,15.00
2018-05-03T19:04:51.413Z,14.90
2018-05-03T19:07:20.090Z,14.80
2018-05-03T19:09:48.694Z,14.60
2018-05-03T19:12:17.313Z,14.50
2018-05-03T19:14:46.691Z,14.20
2018-05-03T19:17:15.299Z,14.20
2018-05-03T19:19:44.732Z,14.00
2018-05-03T19:22:13.373Z,14.00
2018-05-03T19:24:41.975Z,13.90
2018-05-03T19:27:10.621Z,13.80
2018-05-03T19:29:39.226Z,13.70
2018-05-03T19:32:07.875Z,13.50
2018-05-03T19:34:36.522Z,13.40
2018-05-03T19:37:05.133Z,13.30
2018-05-03T19:39:33.770Z,13.30
2018-05-03T19:42:03.392Z,13.20
2018-05-03T19:44:32.104Z,13.10
2018-05-03T19:47:01.551Z,13.00
2018-05-03T19:49:30.201Z,13.00
2018-05-03T19:51:59.617Z,13.00
2018-05-03T19:54:28.274Z,13.00
2018-05-03T19:56:56.984Z,13.00
2018-05-03T19:59:25.646Z,13.00
2018-05-03T20:01:54.309Z,13.00
2018-05-03T20:04:23.142Z,13.10
2018-05-03T20:06:52.232Z,12.90
2018-05-03T20:09:21.054Z,12.90
2018-05-03T20:11:50.407Z,12.90
2018-05-03T20:14:19.033Z,12.90
2018-05-03T20:16:48.440Z,13.00
2018-05-03T20:19:17.904Z,13.00
2018-05-03T20:21:46.596Z,13.00
2018-05-03T20:24:15.311Z,13.00
2018-05-03T20:26:44.095Z,13.10
2018-05-03T20:29:12.791Z,13.00
2018-05-03T20:31:42.203Z,13.00
2018-05-03T20:34:11.709Z,12.90
2018-05-03T20:36:40.411Z,12.90
2018-05-03T20:39:09.836Z,12.90
2018-05-03T20:41:38.527Z,12.90
2018-05-03T20:44:07.135Z,12.80
2018-05-03T20:46:35.863Z,12.80
2018-05-03T20:49:09.904Z,12.80
2018-05-03T20:51:38.746Z,12.70
2018-05-03T20:54:07.552Z,12.60
2018-05-03T20:56:36.294Z,12.60
2018-05-03T20:59:05.388Z,12.50
2018-05-03T21:01:35.458Z,12.40
2018-05-03T21:04:04.154Z,12.40
2018-05-03T21:06:32.939Z,12.30
2018-05-03T21:09:01.628Z,12.30
2018-05-03T21:11:30.303Z,12.20
2018-05-03T21:13:58.740Z,12.10
2018-05-03T21:16:27.680Z,12.10
2018-05-03T21:18:56.380Z,12.00
2018-05-03T21:21:33.459Z,11.90
2018-05-03T21:24:02.103Z,11.80
2018-05-03T21:26:30.768Z,11.70
2018-05-03T21:29:00.149Z,11.70
2018-05-03T21:31:28.762Z,11.70
2018-05-03T21:33:57.367Z,11.70
2018-05-03T21:36:25.838Z,11.80
2018-05-03T21:38:54.440Z,11.80
2018-05-03T21:41:23.054Z,11.80
2018-05-03T21:43:51.687Z,11.80
2018-05-03T21:46:21.118Z,11.80
2018-05-03T21:48:49.844Z,11.70
2018-05-03T21:51:18.455Z,11.80
2018-05-03T21:53:47.072Z,11.70
2018-05-03T21:56:15.691Z,11.70
2018-05-03T21:58:44.398Z,11.60
2018-05-03T22:01:13.049Z,11.60
2018-05-03T22:03:41.656Z,11.60
2018-05-03T22:06:11.067Z,11.60
2018-05-03T22:08:39.671Z,11.60
2018-05-03T22:11:08.335Z,11.60
2018-05-03T22:13:37.001Z,11.60
2018-05-03T22:16:05.635Z,11.50
2018-05-03T22:18:34.339Z,11.50
2018-05-03T22:21:03.745Z,11.40
2018-05-03T22:23:32.449Z,11.40
2018-05-03T22:26:01.104Z,11.40
2018-05-03T22:28:29.709Z,11.40
2018-05-03T22:30:58.347Z,11.30
2018-05-03T22:33:26.972Z,11.30
2018-05-03T22:35:55.610Z,11.20
2018-05-03T22:38:24.323Z,11.20
2018-05-03T22:40:53.128Z,11.20
2018-05-03T22:43:21.934Z,11.20
2018-05-03T22:45:50.555Z,11.10
2018-05-03T22:48:19.212Z,11.10
2018-05-03T22:50:47.851Z,11.00
2018-05-03T22:53:16.456Z,11.00
2018-05-03T22:55:45.118Z,11.00
2018-05-03T22:58:13.713Z,11.00
2018-05-03T23:00:42.369Z,11.00
2018-05-03T23:03:11.792Z,10.90
2018-05-03T23:05:40.391Z,10.90
2018-05-03T23:08:09.045Z,10.90
2018-05-03T23:10:38.539Z,10.90
2018-05-03T23:13:07.168Z,10.80
2018-05-03T23:15:35.805Z,10.90
2018-05-03T23:18:04.398Z,10.80
2018-05-03T23:20:33.090Z,10.80
2018-05-03T23:23:01.798Z,10.80
2018-05-03T23:25:30.439Z,10.80
2018-05-03T23:27:59.070Z,10.80
2018-05-03T23:30:27.768Z,10.70
2018-05-03T23:32:56.513Z,10.70
2018-05-03T23:35:25.115Z,10.70
2018-05-03T23:37:53.734Z,10.60
2018-05-03T23:40:22.391Z,10.60
2018-05-03T23:42:51.004Z,10.60
2018-05-03T23:45:20.408Z,10.60
2018-05-03T23:47:49.002Z,10.60
2018-05-03T23:50:17.685Z,10.60
2018-05-03T23:52:46.426Z,10.50
2018-05-03T23:55:15.059Z,10.50
2018-05-03T23:57:43.710Z,10.50
